Time;durP1;ratioP1;P1;durP2;ratioP2;P2;SDS_P1;SDS_P2;PMS_P1;PMS_P2;Temp;Humidity;BMP_temperature;BMP_pressure;BME280_temperature;BME280_humidity;BME280_pressure;Samples;Min_cycle;Max_cycle;Signal;HPM_P1;HPM_P2
2021/10/18 00:02:01;;;;;;;62.00;35.55;;;;;;;6.43;82.14;99627.05;4236565;83;21029;-83
2021/10/18 00:08:05;;;;;;;61.55;34.73;;;;;;;6.36;82.79;99622.14;4239644;82;21033;-83
2021/10/18 00:14:07;;;;;;;61.83;33.80;;;;;;;6.37;82.66;99633.23;4233336;83;21055;-82
2021/10/18 00:20:12;;;;;;;69.27;39.70;;;;;;;6.29;82.89;99628.69;4235596;83;21058;-82
2021/10/18 00:26:14;;;;;;;76.77;39.10;;;;;;;6.17;82.60;99627.81;4247538;83;21022;-82
2021/10/18 00:32:15;;;;;;;72.10;38.13;;;;;;;6.11;83.04;99627.20;4247123;83;21721;-81
2021/10/18 00:38:16;;;;;;;59.23;31.17;;;;;;;6.01;83.28;99615.92;4252503;82;21021;-82
2021/10/18 00:44:22;;;;;;;61.88;34.63;;;;;;;5.97;83.40;99619.05;4244165;81;21077;-81
2021/10/18 00:50:24;;;;;;;60.30;33.95;;;;;;;5.82;83.25;99612.84;4262021;82;21025;-82
2021/10/18 00:56:27;;;;;;;67.27;35.33;;;;;;;5.82;83.62;99612.84;4185657;84;21534;-81
2021/10/18 01:02:28;;;;;;;60.45;33.70;;;;;;;5.69;83.64;99609.76;4120718;85;21062;-81
2021/10/18 01:08:29;;;;;;;62.80;32.28;;;;;;;5.65;83.89;99607.47;4130317;85;21080;-82
2021/10/18 01:14:30;;;;;;;51.90;29.52;;;;;;;5.65;83.87;99604.76;4247423;83;21015;-82
2021/10/18 01:20:37;;;;;;;56.80;31.60;;;;;;;5.57;83.87;99610.47;4243954;83;21081;-82
2021/10/18 01:26:39;;;;;;;48.15;29.50;;;;;;;5.51;84.37;99614.47;4238513;82;21049;-81
2021/10/18 01:32:40;;;;;;;56.63;29.63;;;;;;;5.44;84.46;99611.48;4215469;83;22252;-83
2021/10/18 01:38:43;;;;;;;55.98;31.93;;;;;;;5.48;84.49;99610.28;4263972;81;21041;-81
2021/10/18 01:44:44;;;;;;;53.90;29.87;;;;;;;5.48;84.52;99604.84;4263114;82;21041;-82
2021/10/18 01:50:46;;;;;;;46.18;26.10;;;;;;;5.41;84.75;99607.26;4178680;84;21452;-82
2021/10/18 01:56:48;;;;;;;46.10;26.68;;;;;;;5.34;84.67;99605.05;4135326;85;21023;-82
2021/10/18 02:02:50;;;;;;;48.00;27.42;;;;;;;5.29;84.99;99607.96;4180297;83;21014;-82
2021/10/18 02:08:54;;;;;;;51.18;28.60;;;;;;;5.36;85.24;99606.08;4118581;85;36149;-82
2021/10/18 02:14:56;;;;;;;54.40;27.82;;;;;;;5.35;85.39;99603.13;4233070;83;21530;-82
2021/10/18 02:21:01;;;;;;;47.58;25.30;;;;;;;5.36;85.36;99605.52;4260784;82;21030;-81
2021/10/18 02:27:04;;;;;;;56.42;29.72;;;;;;;5.43;85.58;99615.33;4204607;83;21055;-81
2021/10/18 02:33:05;;;;;;;54.18;29.45;;;;;;;5.29;85.13;99610.67;4206465;83;21062;-81
2021/10/18 02:39:07;;;;;;;54.90;28.98;;;;;;;5.10;85.17;99610.26;4203258;83;21641;-82
2021/10/18 02:45:09;;;;;;;48.38;26.20;;;;;;;4.95;85.45;99607.27;4202941;83;21059;-81
2021/10/18 02:51:11;;;;;;;52.95;28.35;;;;;;;5.06;86.30;99603.09;4238981;83;21070;-82
2021/10/18 02:57:12;;;;;;;56.88;28.65;;;;;;;5.20;86.38;99601.74;4160783;85;21118;-81
2021/10/18 03:03:15;;;;;;;44.33;25.12;;;;;;;5.20;86.34;99605.81;4168820;84;21058;-82
2021/10/18 03:09:17;;;;;;;48.48;28.17;;;;;;;5.24;86.56;99599.98;4241029;83;21046;-81
2021/10/18 03:15:20;;;;;;;46.15;26.62;;;;;;;5.38;86.79;99604.64;4238543;83;22090;-82
2021/10/18 03:21:22;;;;;;;44.50;24.77;;;;;;;5.44;86.85;99595.74;4239787;83;21081;-83
2021/10/18 03:27:23;;;;;;;44.50;25.30;;;;;;;5.39;86.79;99606.78;4163826;85;21127;-81
2021/10/18 03:33:41;;;;;;;45.40;24.30;;;;;;;5.44;86.88;99602.53;4154841;85;21109;-82
2021/10/18 03:39:43;;;;;;;48.30;26.10;;;;;;;5.54;86.89;99617.11;4239989;83;21531;-82
2021/10/18 03:45:45;;;;;;;51.80;25.75;;;;;;;5.62;87.04;99623.84;4153650;85;21058;-82
2021/10/18 03:51:50;;;;;;;49.35;25.95;;;;;;;5.61;87.04;99622.27;4154371;85;22027;-82
2021/10/18 03:57:52;;;;;;;44.50;24.55;;;;;;;5.65;87.08;99619.14;4236041;83;21074;-82
2021/10/18 04:03:54;;;;;;;52.45;26.02;;;;;;;5.72;87.08;99622.13;4235794;83;21015;-81
2021/10/18 04:09:56;;;;;;;51.30;27.57;;;;;;;5.80;87.14;99625.92;4233522;83;21074;-82
2021/10/18 04:15:58;;;;;;;49.53;27.02;;;;;;;5.84;87.08;99627.67;4235570;83;21002;-82
2021/10/18 04:21:59;;;;;;;47.65;25.80;;;;;;;5.88;87.20;99632.70;4161173;84;21015;-81
2021/10/18 04:28:03;;;;;;;50.70;29.02;;;;;;;5.95;87.12;99645.20;4202180;82;40455;-81
2021/10/18 04:34:05;;;;;;;46.25;26.87;;;;;;;5.95;87.00;99639.77;4233672;83;21069;-82
2021/10/18 04:40:07;;;;;;;56.73;30.30;;;;;;;5.91;87.27;99642.91;4243047;83;21030;-81
2021/10/18 04:46:09;;;;;;;53.35;28.80;;;;;;;5.97;87.27;99651.11;4230742;83;21375;-82
2021/10/18 04:52:12;;;;;;;51.65;28.40;;;;;;;5.95;87.31;99660.14;4224160;83;21077;-81
2021/10/18 04:58:15;;;;;;;47.13;26.42;;;;;;;6.02;87.36;99665.87;4237896;83;21476;-81
2021/10/18 05:04:16;;;;;;;45.12;26.17;;;;;;;6.10;87.30;99668.30;4227969;83;21089;-82
2021/10/18 05:10:18;;;;;;;39.63;23.35;;;;;;;6.11;87.27;99677.48;4229682;83;21013;-81
2021/10/18 05:16:19;;;;;;;38.53;22.50;;;;;;;6.11;87.26;99691.62;4233093;83;21549;-81
2021/10/18 05:22:21;;;;;;;46.70;24.20;;;;;;;6.16;87.32;99697.69;4233020;83;21021;-82
2021/10/18 05:28:22;;;;;;;50.23;24.27;;;;;;;6.23;87.33;99708.83;4234834;83;21164;-81
2021/10/18 05:34:24;;;;;;;41.83;23.27;;;;;;;6.27;87.25;99715.22;4227872;83;21144;-81
2021/10/18 05:40:25;;;;;;;42.43;22.07;;;;;;;6.26;87.59;99719.63;4230416;83;21006;-81
2021/10/18 05:46:30;;;;;;;44.63;24.12;;;;;;;6.27;87.44;99732.89;4217163;83;21224;-82
2021/10/18 05:52:31;;;;;;;45.52;25.80;;;;;;;6.21;88.18;99740.20;4222412;83;21041;-81
2021/10/18 05:58:32;;;;;;;54.08;28.27;;;;;;;6.14;88.27;99747.51;4232049;82;21074;-82
2021/10/18 06:04:42;;;;;;;60.23;31.20;;;;;;;6.24;88.71;99751.22;4197153;83;21062;-81
2021/10/18 06:10:42;;;;;;;57.05;31.45;;;;;;;6.31;88.78;99756.16;4226842;83;21037;-81
2021/10/18 06:16:44;;;;;;;62.78;36.70;;;;;;;6.41;89.37;99759.84;4224282;83;21891;-82
2021/10/18 06:22:47;;;;;;;63.25;35.43;;;;;;;6.52;89.65;99762.41;4225188;83;21033;-83
2021/10/18 06:28:50;;;;;;;58.60;33.58;;;;;;;6.63;89.68;99780.50;4192987;83;21095;-81
2021/10/18 06:34:51;;;;;;;80.00;39.75;;;;;;;6.70;89.75;99783.52;4232220;82;21034;-82
2021/10/18 06:40:54;;;;;;;68.37;38.05;;;;;;;6.83;90.20;99794.72;4226917;83;21061;-82
2021/10/18 06:46:56;;;;;;;66.90;37.13;;;;;;;6.88;90.11;99797.22;4228528;82;21140;-83
2021/10/18 06:52:57;;;;;;;59.88;32.17;;;;;;;6.87;90.23;99799.72;4183417;84;21169;-82
2021/10/18 06:59:03;;;;;;;52.15;31.00;;;;;;;6.92;90.22;99806.34;4118457;85;21121;-82
2021/10/18 07:05:06;;;;;;;56.00;31.70;;;;;;;7.01;90.74;99812.51;4168312;84;21083;-82
2021/10/18 07:11:08;;;;;;;44.75;25.52;;;;;;;7.06;90.87;99815.04;4116236;85;21397;-82
2021/10/18 07:17:10;;;;;;;47.53;25.85;;;;;;;7.12;90.87;99826.77;4169693;84;21063;-83
2021/10/18 07:23:13;;;;;;;44.45;25.43;;;;;;;7.21;91.07;99832.94;4183814;83;21055;-83
2021/10/18 07:29:15;;;;;;;44.13;25.60;;;;;;;7.32;91.25;99832.77;4166182;84;21211;-83
2021/10/18 07:35:20;;;;;;;48.50;25.70;;;;;;;7.46;91.49;99840.66;4201862;83;21093;-82
2021/10/18 07:41:21;;;;;;;41.73;23.42;;;;;;;7.48;91.34;99840.56;4132569;84;96275;-82
2021/10/18 07:47:25;;;;;;;46.65;24.65;;;;;;;7.52;91.67;99844.20;4085190;85;20995;-82
2021/10/18 07:53:26;;;;;;;35.48;21.15;;;;;;;7.61;91.71;99843.55;4104198;85;21703;-81
2021/10/18 07:59:27;;;;;;;42.78;25.37;;;;;;;7.70;91.89;99840.77;4210825;83;21142;-82
2021/10/18 08:05:30;;;;;;;43.40;23.47;;;;;;;7.77;91.92;99843.72;4138474;84;21163;-81
2021/10/18 08:11:32;;;;;;;43.70;24.20;;;;;;;7.78;92.00;99852.15;4132418;83;21146;-82
2021/10/18 08:17:33;;;;;;;38.30;22.35;;;;;;;7.87;92.36;99852.86;4064059;86;21649;-82
2021/10/18 08:23:36;;;;;;;41.00;23.92;;;;;;;7.88;92.04;99859.89;4098328;84;21055;-82
2021/10/18 08:29:37;;;;;;;44.38;23.70;;;;;;;7.90;92.17;99862.53;4098910;84;21044;-82
2021/10/18 08:35:39;;;;;;;41.02;22.62;;;;;;;7.87;92.44;99873.30;4131844;84;21035;-82
2021/10/18 08:41:41;;;;;;;36.35;22.27;;;;;;;7.93;92.55;99874.13;4126342;83;21056;-82
2021/10/18 08:47:43;;;;;;;33.95;21.82;;;;;;;8.00;92.60;99879.03;4118507;84;21610;-83
2021/10/18 08:53:46;;;;;;;39.83;23.55;;;;;;;8.02;92.54;99887.66;4110627;85;21101;-82
2021/10/18 08:59:47;;;;;;;33.18;20.37;;;;;;;8.03;92.62;99891.19;4115829;85;21001;-83
2021/10/18 09:05:50;;;;;;;32.60;20.52;;;;;;;8.03;92.83;99884.37;4161503;84;21057;-84
2021/10/18 09:11:56;;;;;;;36.85;21.87;;;;;;;8.08;93.00;99898.58;4170763;84;21098;-83
2021/10/18 09:18:01;;;;;;;38.65;20.95;;;;;;;8.11;92.98;99897.93;4177060;84;21941;-83
2021/10/18 09:24:04;;;;;;;39.60;21.95;;;;;;;8.18;93.32;99896.80;4163446;84;21031;-84
2021/10/18 09:30:08;;;;;;;34.15;21.27;;;;;;;8.23;93.42;99894.45;4175240;84;21059;-85
2021/10/18 09:36:16;;;;;;;32.67;19.87;;;;;;;8.29;93.77;99893.90;4117175;84;21030;-82
2021/10/18 09:42:18;;;;;;;31.45;19.48;;;;;;;8.40;93.82;99895.06;4107419;84;21019;-82
2021/10/18 10:52:02;;;;;;;32.73;20.30;;;;;;;9.01;94.28;99902.70;4197116;83;21753;-81
2021/10/18 10:58:29;;;;;;;35.13;21.23;;;;;;;9.03;94.00;99918.19;4213248;81;21143;-82
2021/10/18 11:04:36;;;;;;;36.75;21.33;;;;;;;8.99;94.01;99917.29;4193147;83;22398;-82
2021/10/18 11:10:39;;;;;;;36.75;20.92;;;;;;;9.01;94.27;99910.34;4199491;83;21640;-81
2021/10/18 11:16:41;;;;;;;32.25;20.52;;;;;;;9.02;94.41;99905.09;4208932;83;21864;-81
2021/10/18 11:22:54;;;;;;;34.60;20.32;;;;;;;9.04;94.33;99908.84;4159378;83;21009;-83
2021/10/18 11:28:59;;;;;;;33.65;19.80;;;;;;;9.07;94.50;99908.16;4203495;82;21045;-82
2021/10/18 11:35:15;;;;;;;35.38;20.45;;;;;;;9.07;94.22;99905.42;4178855;83;21027;-81
2021/10/18 11:41:18;;;;;;;40.85;23.87;;;;;;;9.09;94.17;99897.69;4196625;83;21070;-82
2021/10/18 11:47:38;;;;;;;49.03;23.92;;;;;;;9.14;94.31;99892.81;4202518;83;21070;-82
2021/10/18 11:53:45;;;;;;;46.28;22.45;;;;;;;9.16;94.36;99886.41;4213084;83;21087;-83
2021/10/18 11:59:48;;;;;;;38.63;23.52;;;;;;;9.23;94.24;99897.56;4229275;83;21078;-83
2021/10/18 12:05:54;;;;;;;39.53;25.52;;;;;;;9.28;94.30;99906.09;4135835;84;21593;-83
2021/10/18 12:11:58;;;;;;;39.57;24.47;;;;;;;9.26;94.10;99905.07;4209096;83;22205;-83
2021/10/18 12:18:02;;;;;;;41.80;24.82;;;;;;;9.28;94.01;99908.83;4227972;83;21015;-82
2021/10/18 12:24:08;;;;;;;46.68;27.00;;;;;;;9.32;94.14;99900.96;4140848;84;21038;-82
2021/10/18 12:30:32;;;;;;;41.63;27.63;;;;;;;9.35;94.07;99904.92;4161317;84;21038;-83
2021/10/18 12:37:08;;;;;;;44.67;26.62;;;;;;;9.38;94.14;99904.27;4234581;83;21121;-82
2021/10/18 12:43:27;;;;;;;47.20;26.17;;;;;;;9.37;94.30;99907.56;4236005;83;21070;-82
2021/10/18 12:49:32;;;;;;;50.58;29.27;;;;;;;9.43;94.35;99906.73;4212620;82;21075;-83
2021/10/18 12:55:38;;;;;;;45.38;28.10;;;;;;;9.42;94.23;99910.06;4168768;84;21055;-84
2021/10/18 13:01:40;;;;;;;50.33;27.40;;;;;;;9.42;94.29;99911.98;4183813;84;21027;-82
2021/10/18 13:07:57;;;;;;;46.80;28.00;;;;;;;9.43;94.30;99920.40;4179233;82;21559;-83
2021/10/18 13:13:59;;;;;;;47.00;27.45;;;;;;;9.45;94.36;99925.77;4183012;84;21063;-82
2021/10/18 13:20:03;;;;;;;51.73;30.20;;;;;;;9.50;94.43;99922.80;4187236;84;21051;-83
2021/10/18 13:26:06;;;;;;;54.98;29.48;;;;;;;9.48;94.36;99929.73;4183403;84;22228;-82
2021/10/18 13:32:08;;;;;;;53.98;30.35;;;;;;;9.46;94.45;99934.74;4183464;84;22385;-82
2021/10/18 13:38:12;;;;;;;51.10;29.48;;;;;;;9.43;94.41;99940.90;4161107;84;21043;-83
2021/10/18 13:44:15;;;;;;;81.20;34.05;;;;;;;9.44;94.59;99946.02;4173953;84;21091;-82
2021/10/18 13:50:17;;;;;;;64.53;32.13;;;;;;;9.47;94.50;99945.33;4177240;83;22237;-82
2021/10/18 13:56:21;;;;;;;64.67;31.10;;;;;;;9.49;94.58;99948.52;4207234;83;21929;-82
2021/10/18 14:02:23;;;;;;;77.67;32.08;;;;;;;9.48;94.54;99944.77;4182921;83;21133;-82
2021/10/18 14:08:26;;;;;;;50.45;28.50;;;;;;;9.49;94.58;99947.72;4198836;83;21034;-82
2021/10/18 14:14:28;;;;;;;53.92;28.73;;;;;;;9.51;94.71;99942.70;4202421;83;20993;-83
2021/10/18 14:20:29;;;;;;;51.73;29.80;;;;;;;9.52;94.56;99939.63;4202539;83;21021;-83
2021/10/18 14:26:31;;;;;;;49.95;27.93;;;;;;;9.48;94.74;99932.47;4206199;83;21041;-84
2021/10/18 14:32:33;;;;;;;44.42;27.90;;;;;;;9.50;94.94;99940.56;4208014;83;21990;-83
2021/10/18 14:38:36;;;;;;;49.27;30.23;;;;;;;9.51;94.75;99953.08;4205456;83;21039;-83
2021/10/18 14:44:38;;;;;;;47.75;29.15;;;;;;;9.52;94.89;99955.25;4192528;83;21634;-83
2021/10/18 14:50:39;;;;;;;57.08;31.77;;;;;;;9.47;94.85;99952.16;4116476;84;21666;-82
2021/10/18 14:56:45;;;;;;;51.83;29.80;;;;;;;9.46;94.89;99952.50;4120523;84;21171;-83
2021/10/18 15:02:48;;;;;;;48.35;28.47;;;;;;;9.43;94.97;99951.83;4127492;85;21059;-83
2021/10/18 15:08:54;;;;;;;52.98;29.75;;;;;;;9.52;94.99;99951.16;4124157;84;21088;-84
2021/10/18 15:14:56;;;;;;;48.13;27.67;;;;;;;9.51;94.98;99958.55;4083902;85;21030;-82
2021/10/18 15:20:58;;;;;;;46.05;25.10;;;;;;;9.53;95.13;99970.50;4178114;83;21159;-82
2021/10/18 15:27:04;;;;;;;40.08;25.12;;;;;;;9.51;95.11;99972.22;4198428;83;21178;-83
2021/10/18 15:33:06;;;;;;;38.10;24.90;;;;;;;9.53;95.20;99980.06;4200410;83;21131;-82
2021/10/18 15:39:07;;;;;;;47.98;27.15;;;;;;;9.50;95.27;99978.83;4198220;83;21094;-83
2021/10/18 15:45:10;;;;;;;43.87;23.83;;;;;;;9.49;95.41;99973.12;4204108;83;21555;-83
2021/10/18 15:51:12;;;;;;;43.45;25.43;;;;;;;9.54;95.33;99985.75;4197723;83;21079;-83
2021/10/18 15:57:15;;;;;;;52.95;30.90;;;;;;;9.54;95.46;99987.92;4194598;83;21667;-82
2021/10/18 16:03:17;;;;;;;48.60;27.60;;;;;;;9.52;95.47;99997.62;4187926;83;21091;-82
2021/10/18 16:09:21;;;;;;;41.33;25.55;;;;;;;9.55;95.49;99994.20;4199858;83;21045;-82
2021/10/18 16:15:25;;;;;;;42.43;26.40;;;;;;;9.54;95.51;99987.92;4193622;83;21110;-81
2021/10/18 16:21:29;;;;;;;46.50;26.93;;;;;;;9.55;95.68;99996.93;4199786;83;21015;-83
2021/10/18 16:27:30;;;;;;;47.17;29.07;;;;;;;9.54;95.66;99998.86;4190642;83;21035;-82
2021/10/18 16:33:32;;;;;;;43.78;28.87;;;;;;;9.54;95.68;100003.52;4185451;83;21576;-81
2021/10/18 16:39:33;;;;;;;44.80;28.77;;;;;;;9.59;95.69;100010.13;4204494;83;20991;-82
2021/10/18 16:45:37;;;;;;;54.77;30.77;;;;;;;9.61;95.51;100001.02;4192032;83;21856;-82
2021/10/18 16:51:39;;;;;;;45.48;27.10;;;;;;;9.49;95.63;99995.55;4201935;83;21544;-83
2021/10/18 16:57:41;;;;;;;44.15;27.02;;;;;;;9.51;95.69;100002.28;4222795;83;21089;-82
2021/10/18 17:03:43;;;;;;;44.85;25.70;;;;;;;9.47;95.68;100001.95;3966748;85;10000253;-84
2021/10/18 17:09:45;;;;;;;44.25;27.02;;;;;;;9.47;95.68;100007.41;4082813;86;21607;-82
2021/10/18 17:15:47;;;;;;;45.65;28.32;;;;;;;9.55;95.96;100018.20;4198171;82;21058;-82
2021/10/18 17:21:49;;;;;;;51.90;31.77;;;;;;;9.54;95.61;100026.19;4195529;83;21016;-82
2021/10/18 17:28:02;;;;;;;56.68;32.95;;;;;;;9.37;95.70;100025.06;4208578;83;21004;-82
2021/10/18 17:34:00;;;;;;;50.98;29.27;;;;;;;9.32;95.98;100021.19;4219841;84;21664;-81
2021/10/18 17:40:03;;;;;;;56.68;31.95;;;;;;;9.40;95.92;100024.94;4219099;83;21024;-82
2021/10/18 17:46:08;;;;;;;62.15;34.35;;;;;;;9.43;96.02;100024.25;4222857;83;21009;-83
2021/10/18 17:52:10;;;;;;;57.78;32.78;;;;;;;9.46;95.92;100031.77;4214373;83;20993;-82
2021/10/18 17:58:11;;;;;;;53.70;31.60;;;;;;;9.46;95.72;100019.47;4209464;83;21038;-82
2021/10/18 18:04:13;;;;;;;53.87;30.27;;;;;;;9.41;95.91;100006.83;4087243;83;10000069;-82
2021/10/18 18:10:16;;;;;;;51.50;31.35;;;;;;;9.46;96.01;100014.00;4190871;83;21036;-82
2021/10/18 18:16:17;;;;;;;56.70;32.03;;;;;;;9.48;96.02;100021.30;4192427;83;20987;-82
2021/10/18 18:22:23;;;;;;;63.40;35.03;;;;;;;9.44;95.73;100017.66;4207097;83;21007;-82
2021/10/18 18:28:25;;;;;;;61.40;33.90;;;;;;;9.35;95.86;100019.13;4175909;83;21127;-82
2021/10/18 18:34:28;;;;;;;59.20;33.70;;;;;;;9.36;95.84;100011.74;4199849;83;21018;-82
2021/10/18 18:40:29;;;;;;;53.78;29.10;;;;;;;9.27;95.80;100006.97;4198710;83;21134;-82
2021/10/18 18:46:33;;;;;;;57.10;29.95;;;;;;;9.31;95.98;100016.06;4199719;83;21083;-82
2021/10/18 18:52:38;;;;;;;55.78;30.72;;;;;;;9.33;95.96;100011.84;4191889;83;21648;-82
2021/10/18 18:58:39;;;;;;;47.25;28.62;;;;;;;9.32;95.91;100014.91;4061741;84;10000435;-82
2021/10/18 19:04:40;;;;;;;50.50;30.10;;;;;;;9.34;96.02;100031.77;4177131;84;21816;-82
2021/10/18 19:10:44;;;;;;;52.80;29.23;;;;;;;9.33;96.06;100041.90;4180747;84;21022;-82
2021/10/18 19:16:46;;;;;;;58.10;31.52;;;;;;;9.42;96.03;100050.00;4177124;84;21158;-82
2021/10/18 19:22:48;;;;;;;53.38;30.65;;;;;;;9.40;95.62;100046.80;4180323;82;21047;-85
2021/10/18 19:28:53;;;;;;;52.35;30.00;;;;;;;9.29;95.56;100047.02;4173611;84;21029;-82
2021/10/18 19:34:54;;;;;;;55.12;29.65;;;;;;;9.37;95.76;100053.76;4186379;84;21008;-84
2021/10/18 19:40:55;;;;;;;60.50;32.15;;;;;;;9.29;95.89;100034.73;4172749;84;21036;-83
2021/10/18 19:46:58;;;;;;;52.20;30.45;;;;;;;9.19;96.07;100041.44;4172506;84;21092;-83
2021/10/18 19:52:59;;;;;;;49.90;28.75;;;;;;;9.21;95.77;100041.90;4173740;84;21071;-82
2021/10/18 19:59:03;;;;;;;52.50;27.32;;;;;;;9.20;95.73;100038.95;4144809;84;21098;-82
2021/10/18 20:05:07;;;;;;;50.60;28.50;;;;;;;9.29;95.79;100056.03;4172422;84;21970;-83
2021/10/18 20:11:11;;;;;;;50.73;30.12;;;;;;;9.36;95.86;100052.73;4172794;84;21037;-82
2021/10/18 20:17:12;;;;;;;48.25;29.65;;;;;;;9.19;95.73;100046.90;4178974;84;21009;-81
2021/10/18 20:23:14;;;;;;;55.92;28.62;;;;;;;9.22;95.90;100055.78;4182269;84;21106;-84
2021/10/18 20:29:16;;;;;;;43.85;26.12;;;;;;;9.24;95.66;100054.07;4173142;84;21121;-82
2021/10/18 20:35:17;;;;;;;39.90;24.15;;;;;;;9.30;95.79;100048.64;4176925;84;21050;-81
2021/10/18 20:41:22;;;;;;;40.12;21.75;;;;;;;9.18;95.68;100044.51;4180990;84;21036;-82
2021/10/18 20:47:24;;;;;;;40.33;21.73;;;;;;;9.20;95.96;100053.17;4171062;84;21004;-82
2021/10/18 20:53:27;;;;;;;35.23;21.20;;;;;;;9.21;95.97;100050.66;4160586;84;21591;-83
2021/10/18 20:59:29;;;;;;;37.25;22.13;;;;;;;9.32;95.94;100066.83;4150521;84;21046;-82
2021/10/18 21:05:31;;;;;;;35.58;20.52;;;;;;;9.29;95.87;100066.15;4147916;83;21095;-83
2021/10/18 21:11:32;;;;;;;37.60;22.35;;;;;;;9.19;95.62;100063.87;4138152;84;21080;-84
2021/10/18 21:17:34;;;;;;;38.00;20.55;;;;;;;9.15;95.66;100065.67;4143184;84;21078;-82
2021/10/18 21:23:35;;;;;;;36.17;21.05;;;;;;;9.29;95.77;100056.03;4149837;84;21482;-82
2021/10/18 21:29:38;;;;;;;32.42;19.00;;;;;;;9.33;95.16;100050.69;4146425;84;21783;-82
2021/10/18 21:35:39;;;;;;;33.78;18.70;;;;;;;9.29;95.04;100048.39;4148386;84;21039;-83
2021/10/18 21:41:42;;;;;;;25.92;16.02;;;;;;;9.28;94.96;100050.34;4149722;84;21086;-82
2021/10/18 21:47:43;;;;;;;33.30;18.40;;;;;;;9.23;94.89;100052.48;4131720;84;21158;-82
2021/10/18 21:53:46;;;;;;;29.07;18.15;;;;;;;9.12;94.68;100051.34;4189685;81;21608;-82
2021/10/18 21:59:49;;;;;;;32.70;16.90;;;;;;;8.94;94.56;100054.05;4204133;83;21119;-82
2021/10/18 22:05:51;;;;;;;33.02;18.25;;;;;;;8.85;94.53;100056.86;4177861;83;21618;-82
2021/10/18 22:11:54;;;;;;;28.45;15.53;;;;;;;8.75;94.46;100051.05;4205469;83;21102;-82
2021/10/18 22:17:56;;;;;;;33.23;16.75;;;;;;;8.72;94.85;100064.78;4055841;86;21092;-82
2021/10/18 22:23:58;;;;;;;26.55;15.20;;;;;;;8.69;94.85;100064.09;4206248;83;21066;-82
2021/10/18 22:29:59;;;;;;;25.75;15.45;;;;;;;8.52;94.68;100055.30;4189913;81;21047;-82
2021/10/18 22:36:02;;;;;;;32.23;16.97;;;;;;;8.44;94.71;100052.08;4205230;83;21708;-83
2021/10/18 22:42:05;;;;;;;33.50;17.42;;;;;;;8.33;94.84;100043.48;4200011;83;21025;-83
2021/10/18 22:48:07;;;;;;;29.95;14.93;;;;;;;8.29;94.80;100034.39;4202278;83;21773;-83
2021/10/18 22:54:11;;;;;;;26.12;14.23;;;;;;;8.21;94.58;100045.33;4241104;83;21574;-83
2021/10/18 23:00:13;;;;;;;25.57;15.38;;;;;;;8.12;94.81;100039.96;4234087;83;21177;-82
2021/10/18 23:06:15;;;;;;;25.32;14.93;;;;;;;8.16;95.06;100046.92;4238190;83;21093;-83
2021/10/18 23:12:17;;;;;;;24.80;14.90;;;;;;;8.18;95.00;100050.90;4222882;83;21502;-82
2021/10/18 23:18:18;;;;;;;19.10;12.65;;;;;;;8.04;94.45;100039.46;4238603;83;21051;-84
2021/10/18 23:24:19;;;;;;;30.75;16.73;;;;;;;7.88;94.23;100023.45;4244288;83;21562;-82
2021/10/18 23:30:23;;;;;;;27.82;16.65;;;;;;;7.88;94.71;100019.37;4222866;83;21137;-82
2021/10/18 23:36:24;;;;;;;30.10;17.17;;;;;;;7.80;94.32;100021.03;4224371;83;21113;-82
2021/10/18 23:42:26;;;;;;;24.47;13.03;;;;;;;7.71;94.52;100029.84;4219173;83;21051;-83
2021/10/18 23:48:28;;;;;;;23.65;15.03;;;;;;;7.59;94.13;100027.59;4225661;83;20998;-82
2021/10/18 23:54:31;;;;;;;28.95;17.32;;;;;;;7.49;94.32;100049.77;4214827;82;21025;-83
